sensor_id;sensor_type;location;lat;lon;timestamp;temperature;humidity
35127;DHT22;21300;52.006;5.798;2022-11-20T00:00:51;2.40;92.30
35127;DHT22;21300;52.006;5.798;2022-11-20T00:03:17;2.40;92.30
35127;DHT22;21300;52.006;5.798;2022-11-20T00:05:43;2.40;92.30
35127;DHT22;21300;52.006;5.798;2022-11-20T00:08:09;2.40;92.30
35127;DHT22;21300;52.006;5.798;2022-11-20T00:10:39;2.40;92.30
35127;DHT22;21300;52.006;5.798;2022-11-20T00:13:05;2.40;92.20
35127;DHT22;21300;52.006;5.798;2022-11-20T00:15:31;2.40;92.20
35127;DHT22;21300;52.006;5.798;2022-11-20T00:17:57;2.40;92.20
35127;DHT22;21300;52.006;5.798;2022-11-20T00:20:23;2.30;92.20
35127;DHT22;21300;52.006;5.798;2022-11-20T00:22:49;2.30;92.20
35127;DHT22;21300;52.006;5.798;2022-11-20T00:25:15;2.30;92.20
35127;DHT22;21300;52.006;5.798;2022-11-20T00:27:40;2.30;92.20
35127;DHT22;21300;52.006;5.798;2022-11-20T00:30:06;2.30;92.20
35127;DHT22;21300;52.006;5.798;2022-11-20T00:32:33;2.20;92.20
35127;DHT22;21300;52.006;5.798;2022-11-20T00:34:59;2.20;92.20
35127;DHT22;21300;52.006;5.798;2022-11-20T00:37:25;2.30;92.20
35127;DHT22;21300;52.006;5.798;2022-11-20T00:39:51;2.20;92.20
35127;DHT22;21300;52.006;5.798;2022-11-20T00:42:16;2.20;92.20
35127;DHT22;21300;52.006;5.798;2022-11-20T00:44:42;2.20;92.20
35127;DHT22;21300;52.006;5.798;2022-11-20T00:47:08;2.20;92.20
35127;DHT22;21300;52.006;5.798;2022-11-20T00:49:34;2.20;92.20
35127;DHT22;21300;52.006;5.798;2022-11-20T00:51:59;2.20;92.20
35127;DHT22;21300;52.006;5.798;2022-11-20T00:54:25;2.20;92.20
35127;DHT22;21300;52.006;5.798;2022-11-20T00:56:53;2.20;92.10
35127;DHT22;21300;52.006;5.798;2022-11-20T00:59:18;2.20;92.10
35127;DHT22;21300;52.006;5.798;2022-11-20T01:01:45;2.10;92.10
35127;DHT22;21300;52.006;5.798;2022-11-20T01:04:10;2.10;92.10
35127;DHT22;21300;52.006;5.798;2022-11-20T01:06:38;2.10;92.20
35127;DHT22;21300;52.006;5.798;2022-11-20T01:09:10;2.10;92.20
35127;DHT22;21300;52.006;5.798;2022-11-20T01:11:39;2.10;92.20
35127;DHT22;21300;52.006;5.798;2022-11-20T01:14:09;2.00;92.10
35127;DHT22;21300;52.006;5.798;2022-11-20T01:16:40;2.00;92.10
35127;DHT22;21300;52.006;5.798;2022-11-20T01:19:13;2.10;92.10
35127;DHT22;21300;52.006;5.798;2022-11-20T01:21:41;2.00;92.10
35127;DHT22;21300;52.006;5.798;2022-11-20T01:24:09;2.00;92.10
35127;DHT22;21300;52.006;5.798;2022-11-20T01:26:37;2.00;92.10
35127;DHT22;21300;52.006;5.798;2022-11-20T01:29:03;2.00;92.10
35127;DHT22;21300;52.006;5.798;2022-11-20T01:31:31;2.00;92.10
35127;DHT22;21300;52.006;5.798;2022-11-20T01:33:59;2.00;92.10
35127;DHT22;21300;52.006;5.798;2022-11-20T01:36:28;1.90;92.10
35127;DHT22;21300;52.006;5.798;2022-11-20T01:38:56;1.90;92.10
35127;DHT22;21300;52.006;5.798;2022-11-20T01:41:23;1.90;92.00
35127;DHT22;21300;52.006;5.798;2022-11-20T01:44:12;1.90;92.10
35127;DHT22;21300;52.006;5.798;2022-11-20T01:46:51;1.90;92.10
35127;DHT22;21300;52.006;5.798;2022-11-20T01:49:52;1.90;92.10
35127;DHT22;21300;52.006;5.798;2022-11-20T01:52:26;1.80;92.10
35127;DHT22;21300;52.006;5.798;2022-11-20T01:55:04;1.90;92.10
35127;DHT22;21300;52.006;5.798;2022-11-20T01:57:31;1.90;92.00
35127;DHT22;21300;52.006;5.798;2022-11-20T02:00:07;1.90;92.00
35127;DHT22;21300;52.006;5.798;2022-11-20T02:02:35;1.80;92.00
35127;DHT22;21300;52.006;5.798;2022-11-20T02:05:09;1.80;92.00
35127;DHT22;21300;52.006;5.798;2022-11-20T02:07:37;1.80;92.00
35127;DHT22;21300;52.006;5.798;2022-11-20T02:10:03;1.80;92.00
35127;DHT22;21300;52.006;5.798;2022-11-20T02:12:29;1.80;92.00
35127;DHT22;21300;52.006;5.798;2022-11-20T02:15:13;1.70;92.00
35127;DHT22;21300;52.006;5.798;2022-11-20T02:17:38;1.70;92.00
35127;DHT22;21300;52.006;5.798;2022-11-20T02:20:04;1.70;92.00
35127;DHT22;21300;52.006;5.798;2022-11-20T02:22:38;1.70;92.00
35127;DHT22;21300;52.006;5.798;2022-11-20T02:25:07;1.70;91.90
35127;DHT22;21300;52.006;5.798;2022-11-20T02:27:33;1.70;92.00
35127;DHT22;21300;52.006;5.798;2022-11-20T02:30:04;1.70;92.00
35127;DHT22;21300;52.006;5.798;2022-11-20T02:32:34;1.70;92.00
35127;DHT22;21300;52.006;5.798;2022-11-20T02:35:53;1.70;91.90
35127;DHT22;21300;52.006;5.798;2022-11-20T02:37:55;1.60;91.90
35127;DHT22;21300;52.006;5.798;2022-11-20T02:40:21;1.60;91.90
35127;DHT22;21300;52.006;5.798;2022-11-20T02:42:47;1.60;91.90
35127;DHT22;21300;52.006;5.798;2022-11-20T02:45:12;1.60;91.90
35127;DHT22;21300;52.006;5.798;2022-11-20T02:47:38;1.60;91.90
35127;DHT22;21300;52.006;5.798;2022-11-20T02:50:05;1.60;92.00
35127;DHT22;21300;52.006;5.798;2022-11-20T02:52:31;1.60;91.90
35127;DHT22;21300;52.006;5.798;2022-11-20T02:54:56;1.60;92.00
35127;DHT22;21300;52.006;5.798;2022-11-20T02:57:22;1.60;91.90
35127;DHT22;21300;52.006;5.798;2022-11-20T02:59:47;1.50;91.90
35127;DHT22;21300;52.006;5.798;2022-11-20T03:02:13;1.60;91.90
35127;DHT22;21300;52.006;5.798;2022-11-20T03:04:39;1.50;91.90
35127;DHT22;21300;52.006;5.798;2022-11-20T03:07:04;1.50;91.90
35127;DHT22;21300;52.006;5.798;2022-11-20T03:09:30;1.50;91.90
35127;DHT22;21300;52.006;5.798;2022-11-20T03:11:56;1.50;91.90
35127;DHT22;21300;52.006;5.798;2022-11-20T03:14:22;1.50;91.90
35127;DHT22;21300;52.006;5.798;2022-11-20T03:16:47;1.50;91.90
35127;DHT22;21300;52.006;5.798;2022-11-20T03:19:13;1.50;91.90
35127;DHT22;21300;52.006;5.798;2022-11-20T03:21:38;1.40;91.80
35127;DHT22;21300;52.006;5.798;2022-11-20T03:24:04;1.40;91.90
35127;DHT22;21300;52.006;5.798;2022-11-20T03:26:30;1.40;91.90
35127;DHT22;21300;52.006;5.798;2022-11-20T03:28:58;1.40;91.80
35127;DHT22;21300;52.006;5.798;2022-11-20T03:31:27;1.40;91.80
35127;DHT22;21300;52.006;5.798;2022-11-20T03:33:53;1.40;91.80
35127;DHT22;21300;52.006;5.798;2022-11-20T03:36:20;1.40;91.90
35127;DHT22;21300;52.006;5.798;2022-11-20T03:38:46;1.40;91.80
35127;DHT22;21300;52.006;5.798;2022-11-20T03:41:23;1.40;91.80
35127;DHT22;21300;52.006;5.798;2022-11-20T03:43:57;1.30;91.80
35127;DHT22;21300;52.006;5.798;2022-11-20T03:46:24;1.30;91.80
35127;DHT22;21300;52.006;5.798;2022-11-20T03:48:51;1.30;91.80
35127;DHT22;21300;52.006;5.798;2022-11-20T03:51:22;1.20;91.80
35127;DHT22;21300;52.006;5.798;2022-11-20T03:53:49;1.30;91.80
35127;DHT22;21300;52.006;5.798;2022-11-20T03:56:16;1.30;91.80
35127;DHT22;21300;52.006;5.798;2022-11-20T03:58:43;1.30;91.70
35127;DHT22;21300;52.006;5.798;2022-11-20T04:01:12;1.20;91.80
35127;DHT22;21300;52.006;5.798;2022-11-20T04:03:56;1.20;91.70
35127;DHT22;21300;52.006;5.798;2022-11-20T04:06:27;1.20;91.80
35127;DHT22;21300;52.006;5.798;2022-11-20T04:08:57;1.20;91.80
35127;DHT22;21300;52.006;5.798;2022-11-20T04:11:25;1.20;91.80
35127;DHT22;21300;52.006;5.798;2022-11-20T04:13:54;1.20;91.80
35127;DHT22;21300;52.006;5.798;2022-11-20T04:16:21;1.10;91.70
35127;DHT22;21300;52.006;5.798;2022-11-20T04:18:47;1.10;91.70
35127;DHT22;21300;52.006;5.798;2022-11-20T04:21:12;1.10;91.80
35127;DHT22;21300;52.006;5.798;2022-11-20T04:23:38;1.20;91.70
35127;DHT22;21300;52.006;5.798;2022-11-20T04:26:10;1.10;91.70
35127;DHT22;21300;52.006;5.798;2022-11-20T04:28:37;1.10;91.60
35127;DHT22;21300;52.006;5.798;2022-11-20T04:31:17;1.10;91.70
35127;DHT22;21300;52.006;5.798;2022-11-20T04:33:43;1.10;91.80
35127;DHT22;21300;52.006;5.798;2022-11-20T04:36:13;1.10;91.70
35127;DHT22;21300;52.006;5.798;2022-11-20T04:38:39;1.10;91.60
35127;DHT22;21300;52.006;5.798;2022-11-20T04:41:08;1.10;91.70
35127;DHT22;21300;52.006;5.798;2022-11-20T04:43:35;1.10;91.70
35127;DHT22;21300;52.006;5.798;2022-11-20T04:46:00;1.00;91.60
35127;DHT22;21300;52.006;5.798;2022-11-20T04:48:27;1.00;91.60
35127;DHT22;21300;52.006;5.798;2022-11-20T04:50:53;1.00;91.70
35127;DHT22;21300;52.006;5.798;2022-11-20T04:53:19;1.00;92.00
35127;DHT22;21300;52.006;5.798;2022-11-20T04:55:45;1.00;91.60
35127;DHT22;21300;52.006;5.798;2022-11-20T04:58:12;1.00;91.60
35127;DHT22;21300;52.006;5.798;2022-11-20T05:00:38;1.00;91.60
35127;DHT22;21300;52.006;5.798;2022-11-20T05:03:03;1.00;91.60
35127;DHT22;21300;52.006;5.798;2022-11-20T05:05:29;0.90;91.60
35127;DHT22;21300;52.006;5.798;2022-11-20T05:07:58;0.90;91.60
35127;DHT22;21300;52.006;5.798;2022-11-20T05:10:25;0.90;91.60
35127;DHT22;21300;52.006;5.798;2022-11-20T05:12:51;0.90;91.60
35127;DHT22;21300;52.006;5.798;2022-11-20T05:15:16;0.90;91.60
35127;DHT22;21300;52.006;5.798;2022-11-20T05:17:50;0.90;91.60
35127;DHT22;21300;52.006;5.798;2022-11-20T05:20:16;0.90;91.60
35127;DHT22;21300;52.006;5.798;2022-11-20T05:22:43;0.80;91.60
35127;DHT22;21300;52.006;5.798;2022-11-20T05:25:08;0.80;91.60
35127;DHT22;21300;52.006;5.798;2022-11-20T05:27:34;0.80;91.60
35127;DHT22;21300;52.006;5.798;2022-11-20T05:30:00;0.80;91.60
35127;DHT22;21300;52.006;5.798;2022-11-20T05:32:25;0.80;91.50
35127;DHT22;21300;52.006;5.798;2022-11-20T05:34:52;0.80;91.60
35127;DHT22;21300;52.006;5.798;2022-11-20T05:37:17;0.80;91.60
35127;DHT22;21300;52.006;5.798;2022-11-20T05:39:43;0.80;91.60
35127;DHT22;21300;52.006;5.798;2022-11-20T05:42:09;0.80;91.60
35127;DHT22;21300;52.006;5.798;2022-11-20T05:44:53;0.80;91.50
35127;DHT22;21300;52.006;5.798;2022-11-20T05:47:18;0.70;91.50
35127;DHT22;21300;52.006;5.798;2022-11-20T05:49:44;0.70;91.50
35127;DHT22;21300;52.006;5.798;2022-11-20T05:52:10;0.70;91.50
35127;DHT22;21300;52.006;5.798;2022-11-20T05:54:35;0.70;91.50
35127;DHT22;21300;52.006;5.798;2022-11-20T05:57:01;0.70;91.40
35127;DHT22;21300;52.006;5.798;2022-11-20T05:59:26;0.70;91.40
35127;DHT22;21300;52.006;5.798;2022-11-20T06:01:52;0.70;91.50
35127;DHT22;21300;52.006;5.798;2022-11-20T06:04:17;0.70;91.40
35127;DHT22;21300;52.006;5.798;2022-11-20T06:06:43;0.70;91.50
35127;DHT22;21300;52.006;5.798;2022-11-20T06:09:08;0.60;91.40
35127;DHT22;21300;52.006;5.798;2022-11-20T06:11:34;0.60;91.40
35127;DHT22;21300;52.006;5.798;2022-11-20T06:13:59;0.60;91.40
35127;DHT22;21300;52.006;5.798;2022-11-20T06:16:25;0.60;91.40
35127;DHT22;21300;52.006;5.798;2022-11-20T06:18:51;0.60;91.40
35127;DHT22;21300;52.006;5.798;2022-11-20T06:21:18;0.60;91.40
35127;DHT22;21300;52.006;5.798;2022-11-20T06:23:45;0.60;91.40
35127;DHT22;21300;52.006;5.798;2022-11-20T06:26:16;0.60;91.40
35127;DHT22;21300;52.006;5.798;2022-11-20T06:28:43;0.50;91.40
35127;DHT22;21300;52.006;5.798;2022-11-20T06:31:11;0.50;91.30
35127;DHT22;21300;52.006;5.798;2022-11-20T06:33:39;0.50;91.40
35127;DHT22;21300;52.006;5.798;2022-11-20T06:36:04;0.50;91.40
35127;DHT22;21300;52.006;5.798;2022-11-20T06:38:30;0.40;91.30
35127;DHT22;21300;52.006;5.798;2022-11-20T06:40:56;0.50;91.40
35127;DHT22;21300;52.006;5.798;2022-11-20T06:43:22;0.50;91.40
35127;DHT22;21300;52.006;5.798;2022-11-20T06:45:56;0.40;91.40
35127;DHT22;21300;52.006;5.798;2022-11-20T06:48:23;0.50;91.40
35127;DHT22;21300;52.006;5.798;2022-11-20T06:50:49;0.40;91.30
35127;DHT22;21300;52.006;5.798;2022-11-20T06:53:14;0.40;91.30
35127;DHT22;21300;52.006;5.798;2022-11-20T06:55:46;0.40;91.30
35127;DHT22;21300;52.006;5.798;2022-11-20T06:58:12;0.40;91.30
35127;DHT22;21300;52.006;5.798;2022-11-20T07:00:39;0.40;91.30
35127;DHT22;21300;52.006;5.798;2022-11-20T07:03:05;0.40;91.30
35127;DHT22;21300;52.006;5.798;2022-11-20T07:05:31;0.30;91.30
35127;DHT22;21300;52.006;5.798;2022-11-20T07:07:57;0.30;91.30
35127;DHT22;21300;52.006;5.798;2022-11-20T07:10:23;0.30;91.30
35127;DHT22;21300;52.006;5.798;2022-11-20T07:12:50;0.30;91.30
35127;DHT22;21300;52.006;5.798;2022-11-20T07:15:17;0.30;91.30
35127;DHT22;21300;52.006;5.798;2022-11-20T07:17:42;0.30;91.40
35127;DHT22;21300;52.006;5.798;2022-11-20T07:20:08;0.30;91.30
35127;DHT22;21300;52.006;5.798;2022-11-20T07:22:34;0.30;91.30
35127;DHT22;21300;52.006;5.798;2022-11-20T07:25:00;0.30;91.40
35127;DHT22;21300;52.006;5.798;2022-11-20T07:27:25;0.30;91.30
35127;DHT22;21300;52.006;5.798;2022-11-20T07:29:51;0.20;91.30
35127;DHT22;21300;52.006;5.798;2022-11-20T07:32:16;0.20;91.30
35127;DHT22;21300;52.006;5.798;2022-11-20T07:34:42;0.10;91.20
35127;DHT22;21300;52.006;5.798;2022-11-20T07:37:08;0.10;90.80
35127;DHT22;21300;52.006;5.798;2022-11-20T07:39:33;0.10;90.90
35127;DHT22;21300;52.006;5.798;2022-11-20T07:41:59;0.20;90.90
35127;DHT22;21300;52.006;5.798;2022-11-20T07:44:24;0.10;90.90
35127;DHT22;21300;52.006;5.798;2022-11-20T07:46:50;0.10;91.00
35127;DHT22;21300;52.006;5.798;2022-11-20T07:49:17;0.10;91.10
35127;DHT22;21300;52.006;5.798;2022-11-20T07:51:42;0.10;91.10
35127;DHT22;21300;52.006;5.798;2022-11-20T07:54:08;0.10;91.10
35127;DHT22;21300;52.006;5.798;2022-11-20T07:56:33;0.10;91.10
35127;DHT22;21300;52.006;5.798;2022-11-20T07:58:59;0.10;91.20
35127;DHT22;21300;52.006;5.798;2022-11-20T08:01:25;0.10;91.20
35127;DHT22;21300;52.006;5.798;2022-11-20T08:03:50;0.10;91.10
35127;DHT22;21300;52.006;5.798;2022-11-20T08:06:16;0.10;91.10
35127;DHT22;21300;52.006;5.798;2022-11-20T08:08:42;0.10;91.20
35127;DHT22;21300;52.006;5.798;2022-11-20T08:11:08;0.10;91.20
35127;DHT22;21300;52.006;5.798;2022-11-20T08:13:52;0.10;91.20
35127;DHT22;21300;52.006;5.798;2022-11-20T08:16:36;0.10;91.20
35127;DHT22;21300;52.006;5.798;2022-11-20T08:19:02;0.10;91.30
35127;DHT22;21300;52.006;5.798;2022-11-20T08:21:27;0.10;91.30
35127;DHT22;21300;52.006;5.798;2022-11-20T08:23:53;0.10;91.30
35127;DHT22;21300;52.006;5.798;2022-11-20T08:26:20;0.10;91.30
35127;DHT22;21300;52.006;5.798;2022-11-20T08:28:45;0.10;91.30
35127;DHT22;21300;52.006;5.798;2022-11-20T08:31:12;0.10;91.30
35127;DHT22;21300;52.006;5.798;2022-11-20T08:33:38;0.10;91.30
35127;DHT22;21300;52.006;5.798;2022-11-20T08:36:05;0.10;91.30
35127;DHT22;21300;52.006;5.798;2022-11-20T08:38:31;0.10;91.30
35127;DHT22;21300;52.006;5.798;2022-11-20T08:40:58;0.10;91.30
35127;DHT22;21300;52.006;5.798;2022-11-20T08:43:42;0.10;91.30
35127;DHT22;21300;52.006;5.798;2022-11-20T08:46:08;0.10;91.40
35127;DHT22;21300;52.006;5.798;2022-11-20T08:48:33;0.10;91.30
35127;DHT22;21300;52.006;5.798;2022-11-20T08:50:59;0.20;91.30
35127;DHT22;21300;52.006;5.798;2022-11-20T08:53:25;0.20;91.40
35127;DHT22;21300;52.006;5.798;2022-11-20T08:55:51;0.20;91.40
35127;DHT22;21300;52.006;5.798;2022-11-20T08:58:17;0.20;91.40
35127;DHT22;21300;52.006;5.798;2022-11-20T09:00:43;0.20;91.40
35127;DHT22;21300;52.006;5.798;2022-11-20T09:03:08;0.20;91.40
35127;DHT22;21300;52.006;5.798;2022-11-20T09:05:34;0.20;91.40
35127;DHT22;21300;52.006;5.798;2022-11-20T09:07:59;0.20;91.40
35127;DHT22;21300;52.006;5.798;2022-11-20T09:10:26;0.20;91.50
35127;DHT22;21300;52.006;5.798;2022-11-20T09:12:52;0.20;91.60
35127;DHT22;21300;52.006;5.798;2022-11-20T09:15:20;0.20;91.50
35127;DHT22;21300;52.006;5.798;2022-11-20T09:17:59;0.20;91.90
35127;DHT22;21300;52.006;5.798;2022-11-20T09:20:25;0.20;91.60
35127;DHT22;21300;52.006;5.798;2022-11-20T09:22:51;0.20;91.60
35127;DHT22;21300;52.006;5.798;2022-11-20T09:25:17;0.20;91.60
35127;DHT22;21300;52.006;5.798;2022-11-20T09:27:43;0.20;91.60
35127;DHT22;21300;52.006;5.798;2022-11-20T09:30:12;0.30;91.60
35127;DHT22;21300;52.006;5.798;2022-11-20T09:32:42;0.20;91.70
35127;DHT22;21300;52.006;5.798;2022-11-20T09:35:08;0.20;91.70
35127;DHT22;21300;52.006;5.798;2022-11-20T09:37:36;0.30;91.80
35127;DHT22;21300;52.006;5.798;2022-11-20T09:40:03;0.30;91.80
35127;DHT22;21300;52.006;5.798;2022-11-20T09:47:55;0.20;92.20
35127;DHT22;21300;52.006;5.798;2022-11-20T09:53:20;0.30;92.10
35127;DHT22;21300;52.006;5.798;2022-11-20T09:55:50;0.30;92.00
35127;DHT22;21300;52.006;5.798;2022-11-20T09:58:34;0.30;92.00
35127;DHT22;21300;52.006;5.798;2022-11-20T10:01:12;0.40;91.90
35127;DHT22;21300;52.006;5.798;2022-11-20T10:06:17;0.40;91.90
35127;DHT22;21300;52.006;5.798;2022-11-20T10:11:56;0.40;91.90
35127;DHT22;21300;52.006;5.798;2022-11-20T10:17:03;0.40;91.90
35127;DHT22;21300;52.006;5.798;2022-11-20T10:20:14;0.50;92.00
35127;DHT22;21300;52.006;5.798;2022-11-20T10:25:19;0.50;92.00
35127;DHT22;21300;52.006;5.798;2022-11-20T10:30:38;0.50;92.10
35127;DHT22;21300;52.006;5.798;2022-11-20T10:33:19;0.60;92.00
35127;DHT22;21300;52.006;5.798;2022-11-20T10:35:51;0.60;92.00
35127;DHT22;21300;52.006;5.798;2022-11-20T10:38:25;0.60;92.10
35127;DHT22;21300;52.006;5.798;2022-11-20T10:40:57;0.60;92.00
35127;DHT22;21300;52.006;5.798;2022-11-20T10:43:45;0.60;92.00
35127;DHT22;21300;52.006;5.798;2022-11-20T10:46:17;0.70;92.00
35127;DHT22;21300;52.006;5.798;2022-11-20T10:48:45;0.70;92.10
35127;DHT22;21300;52.006;5.798;2022-11-20T10:57:54;0.70;92.00
35127;DHT22;21300;52.006;5.798;2022-11-20T11:00:12;0.70;92.00
35127;DHT22;21300;52.006;5.798;2022-11-20T11:05:38;0.70;92.50
35127;DHT22;21300;52.006;5.798;2022-11-20T11:08:10;0.80;92.40
35127;DHT22;21300;52.006;5.798;2022-11-20T11:10:58;0.80;92.50
35127;DHT22;21300;52.006;5.798;2022-11-20T11:13:30;0.80;92.80
35127;DHT22;21300;52.006;5.798;2022-11-20T11:15:56;0.80;93.00
35127;DHT22;21300;52.006;5.798;2022-11-20T11:18:28;0.80;92.70
35127;DHT22;21300;52.006;5.798;2022-11-20T11:20:56;0.90;92.60
35127;DHT22;21300;52.006;5.798;2022-11-20T11:23:41;0.90;92.60
35127;DHT22;21300;52.006;5.798;2022-11-20T11:26:19;0.90;92.60
35127;DHT22;21300;52.006;5.798;2022-11-20T11:28:59;0.90;92.60
35127;DHT22;21300;52.006;5.798;2022-11-20T11:31:28;0.90;92.60
35127;DHT22;21300;52.006;5.798;2022-11-20T11:34:13;0.90;92.50
35127;DHT22;21300;52.006;5.798;2022-11-20T11:36:40;1.00;92.60
35127;DHT22;21300;52.006;5.798;2022-11-20T11:39:11;1.00;92.70
35127;DHT22;21300;52.006;5.798;2022-11-20T11:41:39;1.00;92.60
35127;DHT22;21300;52.006;5.798;2022-11-20T11:44:24;1.00;92.50
35127;DHT22;21300;52.006;5.798;2022-11-20T11:55:29;1.10;92.50
35127;DHT22;21300;52.006;5.798;2022-11-20T11:57:57;1.10;92.40
35127;DHT22;21300;52.006;5.798;2022-11-20T12:00:26;1.10;92.40
35127;DHT22;21300;52.006;5.798;2022-11-20T12:03:06;1.10;92.50
35127;DHT22;21300;52.006;5.798;2022-11-20T12:05:43;1.20;92.60
35127;DHT22;21300;52.006;5.798;2022-11-20T12:08:29;1.20;92.50
35127;DHT22;21300;52.006;5.798;2022-11-20T12:15:58;1.20;92.50
35127;DHT22;21300;52.006;5.798;2022-11-20T12:18:25;1.20;92.50
35127;DHT22;21300;52.006;5.798;2022-11-20T12:24:20;1.20;92.50
35127;DHT22;21300;52.006;5.798;2022-11-20T12:29:12;1.30;92.60
35127;DHT22;21300;52.006;5.798;2022-11-20T12:34:56;1.30;92.60
35127;DHT22;21300;52.006;5.798;2022-11-20T12:37:57;1.30;92.60
35127;DHT22;21300;52.006;5.798;2022-11-20T12:43:27;1.30;92.60
35127;DHT22;21300;52.006;5.798;2022-11-20T12:46:26;1.40;92.60
35127;DHT22;21300;52.006;5.798;2022-11-20T12:49:22;1.30;92.80
35127;DHT22;21300;52.006;5.798;2022-11-20T12:57:53;1.40;93.00
35127;DHT22;21300;52.006;5.798;2022-11-20T13:00:21;1.40;93.00
35127;DHT22;21300;52.006;5.798;2022-11-20T13:08:21;1.50;93.10
35127;DHT22;21300;52.006;5.798;2022-11-20T13:11:08;1.50;93.00
35127;DHT22;21300;52.006;5.798;2022-11-20T13:16:17;1.50;92.90
35127;DHT22;21300;52.006;5.798;2022-11-20T13:18:44;1.50;93.00
35127;DHT22;21300;52.006;5.798;2022-11-20T13:21:19;1.50;93.00
35127;DHT22;21300;52.006;5.798;2022-11-20T13:23:45;1.50;93.00
35127;DHT22;21300;52.006;5.798;2022-11-20T13:26:20;1.60;93.00
35127;DHT22;21300;52.006;5.798;2022-11-20T13:28:59;1.60;93.00
35127;DHT22;21300;52.006;5.798;2022-11-20T13:31:32;1.60;93.00
35127;DHT22;21300;52.006;5.798;2022-11-20T13:34:00;1.60;92.90
35127;DHT22;21300;52.006;5.798;2022-11-20T13:36:28;1.60;93.00
35127;DHT22;21300;52.006;5.798;2022-11-20T13:38:56;1.60;93.40
35127;DHT22;21300;52.006;5.798;2022-11-20T13:44:04;1.60;93.00
35127;DHT22;21300;52.006;5.798;2022-11-20T13:46:45;1.60;93.00
35127;DHT22;21300;52.006;5.798;2022-11-20T13:49:43;1.60;93.00
35127;DHT22;21300;52.006;5.798;2022-11-20T13:55:16;1.60;93.00
35127;DHT22;21300;52.006;5.798;2022-11-20T14:01:24;1.60;93.00
35127;DHT22;21300;52.006;5.798;2022-11-20T14:03:52;1.60;93.10
35127;DHT22;21300;52.006;5.798;2022-11-20T14:06:29;1.60;93.10
35127;DHT22;21300;52.006;5.798;2022-11-20T14:08:56;1.70;93.10
35127;DHT22;21300;52.006;5.798;2022-11-20T14:11:25;1.70;93.10
35127;DHT22;21300;52.006;5.798;2022-11-20T14:16:25;1.70;93.10
35127;DHT22;21300;52.006;5.798;2022-11-20T14:18:52;1.70;93.10
35127;DHT22;21300;52.006;5.798;2022-11-20T14:21:26;1.80;93.20
35127;DHT22;21300;52.006;5.798;2022-11-20T14:24:13;1.80;93.10
35127;DHT22;21300;52.006;5.798;2022-11-20T14:26:43;1.80;93.10
35127;DHT22;21300;52.006;5.798;2022-11-20T14:29:17;1.80;93.10
35127;DHT22;21300;52.006;5.798;2022-11-20T14:31:48;1.80;93.20
35127;DHT22;21300;52.006;5.798;2022-11-20T14:34:23;1.80;94.00
35127;DHT22;21300;52.006;5.798;2022-11-20T14:36:53;1.80;94.10
35127;DHT22;21300;52.006;5.798;2022-11-20T14:39:20;1.80;94.10
35127;DHT22;21300;52.006;5.798;2022-11-20T14:41:51;1.80;94.10
35127;DHT22;21300;52.006;5.798;2022-11-20T14:44:17;1.80;94.10
35127;DHT22;21300;52.006;5.798;2022-11-20T14:46:43;1.80;94.10
35127;DHT22;21300;52.006;5.798;2022-11-20T14:49:10;1.90;94.10
35127;DHT22;21300;52.006;5.798;2022-11-20T14:51:39;1.90;94.10
35127;DHT22;21300;52.006;5.798;2022-11-20T14:54:17;1.90;94.10
35127;DHT22;21300;52.006;5.798;2022-11-20T14:57:00;1.90;94.10
35127;DHT22;21300;52.006;5.798;2022-11-20T14:59:28;1.90;94.10
35127;DHT22;21300;52.006;5.798;2022-11-20T15:02:00;1.90;94.10
35127;DHT22;21300;52.006;5.798;2022-11-20T15:04:26;1.90;94.00
35127;DHT22;21300;52.006;5.798;2022-11-20T15:06:54;1.90;94.10
35127;DHT22;21300;52.006;5.798;2022-11-20T15:09:21;1.90;94.10
35127;DHT22;21300;52.006;5.798;2022-11-20T15:11:54;1.90;94.10
35127;DHT22;21300;52.006;5.798;2022-11-20T15:14:20;1.90;94.10
35127;DHT22;21300;52.006;5.798;2022-11-20T15:16:46;1.90;94.10
35127;DHT22;21300;52.006;5.798;2022-11-20T15:19:29;1.90;94.10
35127;DHT22;21300;52.006;5.798;2022-11-20T15:21:55;2.00;94.10
35127;DHT22;21300;52.006;5.798;2022-11-20T15:24:21;2.00;94.20
35127;DHT22;21300;52.006;5.798;2022-11-20T15:26:47;2.00;94.20
35127;DHT22;21300;52.006;5.798;2022-11-20T15:29:15;2.00;94.50
35127;DHT22;21300;52.006;5.798;2022-11-20T15:31:44;2.00;94.40
35127;DHT22;21300;52.006;5.798;2022-11-20T15:34:19;1.90;94.30
35127;DHT22;21300;52.006;5.798;2022-11-20T15:36:44;1.90;94.20
35127;DHT22;21300;52.006;5.798;2022-11-20T15:39:10;2.00;94.30
35127;DHT22;21300;52.006;5.798;2022-11-20T15:41:37;2.00;94.20
35127;DHT22;21300;52.006;5.798;2022-11-20T15:44:04;2.00;94.30
35127;DHT22;21300;52.006;5.798;2022-11-20T15:46:39;2.00;94.30
35127;DHT22;21300;52.006;5.798;2022-11-20T15:49:12;1.90;94.20
35127;DHT22;21300;52.006;5.798;2022-11-20T15:51:39;2.00;94.30
35127;DHT22;21300;52.006;5.798;2022-11-20T15:54:13;2.00;94.30
35127;DHT22;21300;52.006;5.798;2022-11-20T15:56:39;2.00;94.20
35127;DHT22;21300;52.006;5.798;2022-11-20T15:59:04;2.00;94.20
35127;DHT22;21300;52.006;5.798;2022-11-20T16:01:30;2.00;94.30
35127;DHT22;21300;52.006;5.798;2022-11-20T16:03:56;2.00;94.30
35127;DHT22;21300;52.006;5.798;2022-11-20T16:06:21;2.00;94.30
35127;DHT22;21300;52.006;5.798;2022-11-20T16:08:47;2.00;94.20
35127;DHT22;21300;52.006;5.798;2022-11-20T16:11:14;2.00;94.20
35127;DHT22;21300;52.006;5.798;2022-11-20T16:13:40;2.00;94.30
35127;DHT22;21300;52.006;5.798;2022-11-20T16:16:31;2.00;94.30
35127;DHT22;21300;52.006;5.798;2022-11-20T16:18:57;2.00;94.30
35127;DHT22;21300;52.006;5.798;2022-11-20T16:21:23;2.10;94.40
35127;DHT22;21300;52.006;5.798;2022-11-20T16:23:58;2.10;94.40
35127;DHT22;21300;52.006;5.798;2022-11-20T16:26:24;2.10;94.40
35127;DHT22;21300;52.006;5.798;2022-11-20T16:28:49;2.10;94.40
35127;DHT22;21300;52.006;5.798;2022-11-20T16:31:17;2.10;94.40
35127;DHT22;21300;52.006;5.798;2022-11-20T16:33:48;2.10;94.40
35127;DHT22;21300;52.006;5.798;2022-11-20T16:36:15;2.10;94.40
35127;DHT22;21300;52.006;5.798;2022-11-20T16:38:41;2.10;94.40
35127;DHT22;21300;52.006;5.798;2022-11-20T16:41:07;2.10;94.40
35127;DHT22;21300;52.006;5.798;2022-11-20T16:43:59;2.10;94.40
35127;DHT22;21300;52.006;5.798;2022-11-20T16:46:28;2.10;94.40
35127;DHT22;21300;52.006;5.798;2022-11-20T16:51:25;2.10;94.40
35127;DHT22;21300;52.006;5.798;2022-11-20T16:53:51;2.10;94.50
35127;DHT22;21300;52.006;5.798;2022-11-20T16:56:19;2.10;94.50
35127;DHT22;21300;52.006;5.798;2022-11-20T16:58:47;2.10;94.50
35127;DHT22;21300;52.006;5.798;2022-11-20T17:01:15;2.10;94.50
35127;DHT22;21300;52.006;5.798;2022-11-20T17:03:42;2.20;94.60
35127;DHT22;21300;52.006;5.798;2022-11-20T17:06:12;2.20;94.60
35127;DHT22;21300;52.006;5.798;2022-11-20T17:08:37;2.20;94.60
35127;DHT22;21300;52.006;5.798;2022-11-20T17:11:07;2.20;94.60
35127;DHT22;21300;52.006;5.798;2022-11-20T17:13:34;2.20;94.50
35127;DHT22;21300;52.006;5.798;2022-11-20T17:16:04;2.20;94.60
35127;DHT22;21300;52.006;5.798;2022-11-20T17:18:30;2.20;94.70
35127;DHT22;21300;52.006;5.798;2022-11-20T17:20:57;2.20;94.70
35127;DHT22;21300;52.006;5.798;2022-11-20T17:23:27;2.20;94.60